Time;durP1;ratioP1;P1;durP2;ratioP2;P2;SDS_P1;SDS_P2;PMS_P1;PMS_P2;Temp;Humidity;BMP_temperature;BMP_pressure;BME280_temperature;BME280_humidity;BME280_pressure;Samples;Min_cycle;Max_cycle;Signal;HPM_P1;HPM_P2
2022/02/17 00:00:20;;;;;;;;;;;19.50;52.10;;;;;;5067471;28;20375;-61
2022/02/17 00:02:48;;;;;;;;;;;19.50;52.10;;;;;;5067741;28;19958;-60
2022/02/17 00:05:13;;;;;;;;;;;19.50;51.90;;;;;;5067600;28;19908;-61
2022/02/17 00:07:39;;;;;;;;;;;19.50;52.10;;;;;;5067429;28;19970;-61
2022/02/17 00:10:05;;;;;;;;;;;19.50;51.90;;;;;;5067549;28;19915;-61
2022/02/17 00:12:31;;;;;;;;;;;19.50;51.90;;;;;;5065718;28;19927;-61
2022/02/17 00:14:56;;;;;;;;;;;19.50;51.80;;;;;;5066936;28;25968;-61
2022/02/17 00:17:22;;;;;;;;;;;19.50;51.90;;;;;;5065515;28;19965;-61
2022/02/17 00:19:47;;;;;;;;;;;19.50;52.00;;;;;;5066838;28;19908;-61
2022/02/17 00:22:13;;;;;;;;;;;19.50;51.90;;;;;;5066870;28;19916;-61
2022/02/17 00:24:38;;;;;;;;;;;19.50;51.90;;;;;;5066925;28;19908;-61
2022/02/17 00:27:04;;;;;;;;;;;19.50;51.80;;;;;;5067665;28;19916;-61
2022/02/17 00:29:29;;;;;;;;;;;19.50;51.90;;;;;;5066346;28;19921;-61
2022/02/17 00:31:54;;;;;;;;;;;19.50;52.00;;;;;;5066892;28;20368;-61
2022/02/17 00:34:20;;;;;;;;;;;19.50;52.00;;;;;;5066736;28;19908;-60
2022/02/17 00:36:45;;;;;;;;;;;19.50;51.90;;;;;;5066714;28;19920;-61
2022/02/17 00:39:11;;;;;;;;;;;19.50;51.90;;;;;;5065245;28;20430;-60
2022/02/17 00:41:36;;;;;;;;;;;19.50;52.00;;;;;;5067015;28;19909;-61
2022/02/17 00:44:02;;;;;;;;;;;19.50;51.90;;;;;;5066562;28;19913;-62
2022/02/17 00:46:27;;;;;;;;;;;19.50;52.00;;;;;;5066727;28;20623;-61
2022/02/17 00:48:53;;;;;;;;;;;19.50;52.50;;;;;;5066575;28;20324;-61
2022/02/17 00:51:18;;;;;;;;;;;19.50;52.50;;;;;;5066082;28;20366;-60
2022/02/17 00:53:44;;;;;;;;;;;19.50;51.80;;;;;;5066349;28;19908;-61
2022/02/17 00:56:09;;;;;;;;;;;19.50;51.80;;;;;;5066646;28;19961;-61
2022/02/17 00:58:35;;;;;;;;;;;19.50;51.80;;;;;;5066774;28;20375;-61
2022/02/17 01:01:00;;;;;;;;;;;19.50;51.90;;;;;;5066453;28;19908;-61
2022/02/17 01:03:26;;;;;;;;;;;19.50;51.80;;;;;;5065364;28;19915;-61
2022/02/17 01:05:51;;;;;;;;;;;19.50;51.70;;;;;;5066496;28;20600;-61
2022/02/17 01:08:16;;;;;;;;;;;19.50;51.80;;;;;;5066673;28;19995;-61
2022/02/17 01:10:42;;;;;;;;;;;19.50;51.80;;;;;;5066692;28;19909;-61
2022/02/17 01:13:07;;;;;;;;;;;19.50;51.90;;;;;;5066240;28;19923;-61
2022/02/17 01:15:33;;;;;;;;;;;19.50;51.70;;;;;;5066971;28;20700;-61
2022/02/17 01:17:58;;;;;;;;;;;19.50;51.80;;;;;;5064617;28;19920;-62
2022/02/17 01:20:24;;;;;;;;;;;19.50;51.90;;;;;;5065817;28;19916;-61
2022/02/17 01:22:49;;;;;;;;;;;19.50;52.00;;;;;;5066044;28;20479;-61
2022/02/17 01:25:15;;;;;;;;;;;19.50;51.90;;;;;;5066353;28;19915;-61
2022/02/17 01:27:40;;;;;;;;;;;19.50;52.00;;;;;;5066165;28;19913;-61
2022/02/17 01:30:06;;;;;;;;;;;19.50;51.90;;;;;;5064948;28;19953;-60
2022/02/17 01:32:31;;;;;;;;;;;19.50;52.00;;;;;;5064336;28;19912;-61
2022/02/17 01:34:57;;;;;;;;;;;19.50;52.00;;;;;;5064873;28;19923;-61
2022/02/17 01:37:22;;;;;;;;;;;19.50;52.10;;;;;;5065971;28;20348;-61
2022/02/17 01:39:48;;;;;;;;;;;19.50;52.00;;;;;;5066109;28;20323;-61
2022/02/17 01:42:13;;;;;;;;;;;19.50;52.00;;;;;;5066076;28;19908;-61
2022/02/17 01:44:39;;;;;;;;;;;19.50;52.10;;;;;;5066002;28;19919;-61
2022/02/17 01:47:11;;;;;;;;;;;19.50;52.00;;;;;;5066794;28;20521;-62
2022/02/17 01:49:36;;;;;;;;;;;19.50;52.00;;;;;;5064854;28;19913;-61
2022/02/17 01:52:02;;;;;;;;;;;19.50;52.00;;;;;;5066034;28;19936;-61
2022/02/17 01:54:28;;;;;;;;;;;19.50;51.90;;;;;;5065283;28;19916;-61
2022/02/17 01:56:53;;;;;;;;;;;19.50;52.00;;;;;;5066538;28;19954;-62
2022/02/17 01:59:19;;;;;;;;;;;19.50;52.00;;;;;;5065395;28;20083;-61
2022/02/17 02:01:44;;;;;;;;;;;19.50;52.00;;;;;;5066223;28;19908;-61
2022/02/17 02:04:10;;;;;;;;;;;19.50;52.10;;;;;;5065655;28;19917;-61
2022/02/17 02:06:35;;;;;;;;;;;19.50;52.10;;;;;;5066427;28;19934;-61
2022/02/17 02:09:01;;;;;;;;;;;19.50;51.90;;;;;;5065522;28;19916;-61
2022/02/17 02:11:26;;;;;;;;;;;19.50;51.90;;;;;;5065842;28;20379;-61
2022/02/17 02:13:52;;;;;;;;;;;19.50;51.80;;;;;;5065161;28;20386;-62
2022/02/17 02:16:17;;;;;;;;;;;19.50;51.90;;;;;;5069576;28;20010;-62
2022/02/17 02:18:43;;;;;;;;;;;19.50;51.90;;;;;;5067594;28;19934;-60
2022/02/17 02:21:08;;;;;;;;;;;19.50;51.80;;;;;;5068917;28;19909;-61
2022/02/17 02:23:34;;;;;;;;;;;19.50;52.10;;;;;;5069367;28;19916;-61
2022/02/17 02:25:59;;;;;;;;;;;19.50;52.10;;;;;;5069408;28;20531;-61
2022/02/17 02:28:25;;;;;;;;;;;19.50;52.10;;;;;;5069169;28;20371;-63
2022/02/17 02:30:51;;;;;;;;;;;19.50;52.20;;;;;;5068847;28;20395;-61
2022/02/17 02:33:17;;;;;;;;;;;19.50;52.20;;;;;;5067040;28;19908;-62
2022/02/17 02:35:43;;;;;;;;;;;19.50;52.30;;;;;;5065862;28;20482;-60
2022/02/17 02:38:08;;;;;;;;;;;19.50;52.20;;;;;;5064640;28;19920;-59
2022/02/17 02:40:34;;;;;;;;;;;19.50;52.20;;;;;;5066036;28;20414;-61
2022/02/17 02:43:00;;;;;;;;;;;19.50;52.20;;;;;;5065446;28;19912;-61
2022/02/17 02:45:25;;;;;;;;;;;19.50;52.10;;;;;;5067771;28;19991;-61
2022/02/17 02:47:50;;;;;;;;;;;19.50;52.10;;;;;;5066007;28;19908;-60
2022/02/17 02:50:16;;;;;;;;;;;19.50;52.20;;;;;;5067961;28;19909;-60
2022/02/17 02:52:41;;;;;;;;;;;19.50;52.10;;;;;;5066617;28;19908;-61
2022/02/17 02:55:07;;;;;;;;;;;19.50;52.10;;;;;;5069373;28;19916;-59
2022/02/17 02:57:32;;;;;;;;;;;19.50;52.20;;;;;;5067993;28;20332;-61
2022/02/17 02:59:58;;;;;;;;;;;19.40;52.20;;;;;;5068697;28;19913;-59
2022/02/17 03:02:23;;;;;;;;;;;19.40;52.20;;;;;;5068475;28;21705;-61
2022/02/17 03:04:49;;;;;;;;;;;19.40;52.10;;;;;;5066401;28;20011;-61
2022/02/17 03:07:14;;;;;;;;;;;19.40;52.20;;;;;;5068396;28;20433;-61
2022/02/17 03:09:40;;;;;;;;;;;19.40;52.20;;;;;;5043050;28;19999;-60
2022/02/17 03:12:05;;;;;;;;;;;19.40;52.30;;;;;;5068924;28;19916;-60
2022/02/17 03:14:31;;;;;;;;;;;19.40;52.30;;;;;;5065731;28;19908;-59
2022/02/17 03:16:56;;;;;;;;;;;19.40;52.30;;;;;;5068386;28;19916;-61
2022/02/17 03:19:21;;;;;;;;;;;19.40;52.30;;;;;;5065067;28;19908;-61
2022/02/17 03:21:47;;;;;;;;;;;19.40;52.40;;;;;;5067871;28;20517;-59
2022/02/17 03:24:12;;;;;;;;;;;19.40;52.50;;;;;;5066102;28;19931;-60
2022/02/17 03:26:38;;;;;;;;;;;19.30;52.50;;;;;;5067518;28;19915;-60
2022/02/17 03:29:03;;;;;;;;;;;19.40;52.50;;;;;;5065027;28;20547;-61
2022/02/17 03:31:29;;;;;;;;;;;19.40;52.40;;;;;;5066893;28;19912;-60
2022/02/17 03:33:54;;;;;;;;;;;19.40;52.40;;;;;;5065600;28;19943;-63
2022/02/17 03:36:20;;;;;;;;;;;19.40;52.30;;;;;;5067572;28;20010;-59
2022/02/17 03:38:45;;;;;;;;;;;19.40;52.30;;;;;;5063952;28;19927;-61
2022/02/17 03:41:11;;;;;;;;;;;19.40;52.30;;;;;;5067184;28;20267;-61
2022/02/17 03:43:36;;;;;;;;;;;19.40;52.30;;;;;;5065433;28;19916;-61
2022/02/17 03:46:01;;;;;;;;;;;19.40;52.40;;;;;;5066803;28;19916;-61
2022/02/17 03:48:27;;;;;;;;;;;19.40;52.30;;;;;;5065831;28;19935;-60
2022/02/17 03:50:52;;;;;;;;;;;19.40;52.30;;;;;;5066988;28;20495;-60
2022/02/17 03:53:18;;;;;;;;;;;19.50;52.40;;;;;;5065402;28;19916;-59
2022/02/17 03:55:43;;;;;;;;;;;19.50;52.30;;;;;;5067795;28;19912;-61
2022/02/17 03:58:09;;;;;;;;;;;19.50;52.20;;;;;;5065384;28;19916;-57
2022/02/17 04:00:34;;;;;;;;;;;19.60;52.20;;;;;;5067028;28;19908;-62
2022/02/17 04:03:03;;;;;;;;;;;19.60;52.10;;;;;;5064711;28;20381;-60
2022/02/17 04:05:28;;;;;;;;;;;19.60;52.00;;;;;;5066201;28;19908;-61
2022/02/17 04:07:54;;;;;;;;;;;19.70;52.00;;;;;;5063458;28;19916;-61
2022/02/17 04:10:19;;;;;;;;;;;19.70;52.00;;;;;;5066293;28;19915;-61
2022/02/17 04:12:45;;;;;;;;;;;19.70;52.00;;;;;;5042621;22;19932;-72
2022/02/17 04:15:11;;;;;;;;;;;19.70;52.00;;;;;;5018983;28;20382;-71
2022/02/17 04:17:36;;;;;;;;;;;19.70;51.90;;;;;;5025302;28;19963;-71
2022/02/17 04:20:02;;;;;;;;;;;19.70;51.90;;;;;;5025598;28;19916;-72
2022/02/17 04:22:27;;;;;;;;;;;19.70;51.90;;;;;;5039466;28;19951;-72
2022/02/17 04:24:53;;;;;;;;;;;19.80;51.90;;;;;;5025704;28;19909;-72
2022/02/17 04:27:18;;;;;;;;;;;19.80;51.90;;;;;;5029578;28;20360;-71
2022/02/17 04:29:44;;;;;;;;;;;19.80;51.80;;;;;;5030322;28;19919;-71
2022/02/17 04:32:09;;;;;;;;;;;19.80;51.80;;;;;;5037350;28;19909;-72
2022/02/17 04:34:35;;;;;;;;;;;19.80;51.80;;;;;;5026233;28;20336;-72
2022/02/17 04:37:01;;;;;;;;;;;19.80;51.80;;;;;;5026021;28;19913;-71
2022/02/17 04:39:27;;;;;;;;;;;19.80;51.70;;;;;;5042796;28;20002;-71
2022/02/17 04:44:36;;;;;;;;;;;19.90;51.80;;;;;;5045884;28;20461;-71
2022/02/17 04:47:02;;;;;;;;;;;19.90;51.70;;;;;;5045152;28;20000;-72
2022/02/17 04:49:27;;;;;;;;;;;19.90;51.80;;;;;;5044933;28;20302;-71
2022/02/17 04:51:53;;;;;;;;;;;19.90;51.80;;;;;;5046000;28;19971;-72
2022/02/17 04:54:18;;;;;;;;;;;19.90;51.70;;;;;;5045859;28;19916;-72
2022/02/17 04:56:44;;;;;;;;;;;19.90;51.70;;;;;;5044649;28;20285;-72
2022/02/17 04:59:09;;;;;;;;;;;19.90;51.70;;;;;;5046088;28;19912;-71
2022/02/17 05:01:35;;;;;;;;;;;20.00;51.80;;;;;;5046077;28;19909;-71
2022/02/17 05:04:00;;;;;;;;;;;20.00;51.80;;;;;;5044867;28;19915;-72
2022/02/17 05:06:25;;;;;;;;;;;20.00;51.70;;;;;;5045310;28;19909;-72
2022/02/17 05:08:51;;;;;;;;;;;19.90;51.70;;;;;;5045897;28;19997;-72
2022/02/17 05:11:16;;;;;;;;;;;20.00;51.80;;;;;;5046140;28;19972;-71
2022/02/17 05:13:42;;;;;;;;;;;20.00;51.70;;;;;;5044539;28;19927;-72
2022/02/17 05:16:07;;;;;;;;;;;20.00;51.70;;;;;;5044510;28;19912;-71
2022/02/17 05:18:33;;;;;;;;;;;20.00;51.70;;;;;;5045773;28;19916;-71
2022/02/17 05:20:59;;;;;;;;;;;20.00;51.80;;;;;;5046557;28;20195;-71
2022/02/17 05:23:24;;;;;;;;;;;20.00;51.70;;;;;;5046445;28;19912;-71
2022/02/17 05:25:50;;;;;;;;;;;20.00;52.40;;;;;;5044254;28;19912;-71
2022/02/17 05:28:16;;;;;;;;;;;20.00;51.70;;;;;;5046505;28;19916;-72
2022/02/17 05:30:44;;;;;;;;;;;20.00;51.70;;;;;;5045085;28;19991;-71
2022/02/17 05:33:10;;;;;;;;;;;20.00;51.60;;;;;;5045264;28;19956;-72
2022/02/17 05:35:35;;;;;;;;;;;20.00;51.60;;;;;;5044510;28;19940;-71
2022/02/17 05:38:00;;;;;;;;;;;20.00;51.60;;;;;;5045772;28;19913;-72
2022/02/17 05:40:26;;;;;;;;;;;19.90;51.70;;;;;;5044973;28;20537;-71
2022/02/17 05:42:51;;;;;;;;;;;19.90;51.60;;;;;;5046803;28;19999;-72
2022/02/17 05:45:17;;;;;;;;;;;20.00;51.70;;;;;;5046353;28;19909;-72
2022/02/17 05:47:42;;;;;;;;;;;20.00;51.70;;;;;;5045791;28;19917;-72
2022/02/17 05:50:08;;;;;;;;;;;20.00;51.60;;;;;;5048985;28;19959;-72
2022/02/17 05:52:34;;;;;;;;;;;20.00;51.60;;;;;;5049848;28;19936;-72
2022/02/17 05:54:59;;;;;;;;;;;20.00;52.20;;;;;;5049158;28;19999;-72
2022/02/17 05:57:25;;;;;;;;;;;20.00;51.60;;;;;;5051064;28;19912;-72
2022/02/17 05:59:50;;;;;;;;;;;19.90;51.80;;;;;;5049742;28;20443;-72
2022/02/17 06:02:16;;;;;;;;;;;20.00;52.20;;;;;;5049509;28;19909;-72
2022/02/17 06:04:43;;;;;;;;;;;20.00;51.60;;;;;;5051441;28;19908;-72
2022/02/17 06:07:13;;;;;;;;;;;20.00;51.60;;;;;;5051028;28;20007;-73
2022/02/17 06:09:43;;;;;;;;;;;20.00;51.60;;;;;;5048160;28;19947;-73
2022/02/17 06:12:09;;;;;;;;;;;19.90;51.50;;;;;;5052430;28;20000;-74
2022/02/17 06:14:34;;;;;;;;;;;20.00;51.50;;;;;;5057193;28;19944;-72
2022/02/17 06:17:00;;;;;;;;;;;20.00;51.50;;;;;;5050475;28;19971;-73
2022/02/17 06:19:25;;;;;;;;;;;20.00;51.50;;;;;;5049506;28;19915;-73
2022/02/17 06:21:51;;;;;;;;;;;20.00;51.50;;;;;;5048914;28;19909;-73
2022/02/17 06:24:16;;;;;;;;;;;20.00;51.60;;;;;;5049066;28;20369;-74
2022/02/17 06:26:42;;;;;;;;;;;20.00;51.50;;;;;;5049198;28;19962;-73
2022/02/17 06:29:07;;;;;;;;;;;20.00;51.60;;;;;;5047799;28;19917;-72
2022/02/17 06:31:32;;;;;;;;;;;20.00;51.60;;;;;;5048293;28;20541;-72
2022/02/17 06:33:58;;;;;;;;;;;20.00;51.60;;;;;;5048781;28;19931;-77
2022/02/17 06:36:23;;;;;;;;;;;20.00;51.60;;;;;;5047275;28;19912;-72
2022/02/17 06:38:49;;;;;;;;;;;20.00;51.60;;;;;;5046616;28;19924;-74
2022/02/17 06:41:14;;;;;;;;;;;19.90;51.60;;;;;;5049197;28;20380;-73
2022/02/17 06:43:40;;;;;;;;;;;19.90;51.60;;;;;;5047117;28;19909;-73
2022/02/17 06:46:06;;;;;;;;;;;19.90;51.60;;;;;;5049081;28;19908;-72
2022/02/17 06:48:31;;;;;;;;;;;19.90;51.60;;;;;;5048170;28;19966;-72
2022/02/17 06:50:57;;;;;;;;;;;19.90;51.60;;;;;;5049564;28;19913;-72
2022/02/17 06:53:22;;;;;;;;;;;19.90;51.60;;;;;;5048343;28;19916;-72
2022/02/17 06:55:48;;;;;;;;;;;19.90;51.60;;;;;;5047360;28;19999;-72
2022/02/17 06:58:15;;;;;;;;;;;19.90;51.50;;;;;;5049800;28;20545;-72
2022/02/17 07:00:40;;;;;;;;;;;19.90;51.50;;;;;;5048341;28;19909;-73
2022/02/17 07:03:06;;;;;;;;;;;19.90;51.50;;;;;;5049626;28;19908;-74
2022/02/17 07:05:32;;;;;;;;;;;19.90;51.50;;;;;;5048268;28;19996;-72
2022/02/17 07:07:57;;;;;;;;;;;19.90;51.50;;;;;;5047222;28;20000;-73
2022/02/17 07:13:07;;;;;;;;;;;19.90;51.60;;;;;;5047840;28;19943;-75
2022/02/17 07:15:35;;;;;;;;;;;19.90;51.60;;;;;;5046993;28;19913;-77
2022/02/17 07:18:07;;;;;;;;;;;19.90;51.60;;;;;;5047671;28;20043;-75
2022/02/17 07:20:34;;;;;;;;;;;19.90;51.60;;;;;;5046391;28;19908;-77
2022/02/17 07:22:59;;;;;;;;;;;19.90;51.60;;;;;;5048425;28;19909;-76
2022/02/17 07:25:24;;;;;;;;;;;19.90;51.60;;;;;;5031401;28;19913;-78
2022/02/17 07:27:50;;;;;;;;;;;19.90;51.40;;;;;;5050803;28;19927;-77
2022/02/17 07:30:15;;;;;;;;;;;19.90;51.60;;;;;;5051282;28;19916;-77
2022/02/17 07:32:41;;;;;;;;;;;19.90;51.60;;;;;;5052183;28;19908;-76
2022/02/17 07:35:07;;;;;;;;;;;19.90;51.70;;;;;;5052204;28;20543;-78
2022/02/17 07:37:32;;;;;;;;;;;19.90;51.70;;;;;;5032716;28;20344;-78
2022/02/17 07:39:59;;;;;;;;;;;19.90;51.80;;;;;;5033948;28;20349;-77
2022/02/17 07:42:24;;;;;;;;;;;19.80;51.80;;;;;;5051136;28;19909;-78
2022/02/17 07:44:52;;;;;;;;;;;19.80;51.90;;;;;;5034125;28;19928;-78
2022/02/17 07:47:17;;;;;;;;;;;19.80;51.90;;;;;;5051051;28;19908;-77
2022/02/17 07:49:43;;;;;;;;;;;19.80;51.90;;;;;;5034884;28;19966;-78
2022/02/17 07:52:08;;;;;;;;;;;19.80;51.80;;;;;;5051582;28;19909;-76
2022/02/17 07:54:34;;;;;;;;;;;19.80;51.80;;;;;;5050352;28;20389;-78
2022/02/17 07:57:02;;;;;;;;;;;19.80;51.80;;;;;;5046254;28;19909;-72
2022/02/17 07:59:28;;;;;;;;;;;19.80;51.80;;;;;;5044786;28;19915;-71
2022/02/17 08:01:53;;;;;;;;;;;19.70;51.80;;;;;;5046015;28;20630;-71
2022/02/17 08:04:19;;;;;;;;;;;19.80;51.90;;;;;;5034081;22;20378;-59
2022/02/17 08:06:44;;;;;;;;;;;19.70;51.90;;;;;;4992515;28;19957;-59
2022/02/17 08:09:10;;;;;;;;;;;19.70;52.00;;;;;;4983960;28;19910;-58
2022/02/17 08:11:35;;;;;;;;;;;19.70;52.30;;;;;;4984909;28;19917;-58
2022/02/17 08:14:01;;;;;;;;;;;19.80;52.40;;;;;;4983024;28;19913;-58
2022/02/17 08:16:26;;;;;;;;;;;19.80;52.70;;;;;;4984449;28;19917;-58
2022/02/17 08:18:52;;;;;;;;;;;19.80;52.80;;;;;;4983911;28;19918;-58
2022/02/17 08:21:17;;;;;;;;;;;19.80;52.80;;;;;;4984618;28;20317;-58
2022/02/17 08:23:42;;;;;;;;;;;19.80;52.80;;;;;;4980020;28;19947;-58
2022/02/17 08:26:08;;;;;;;;;;;19.80;52.90;;;;;;4986048;28;19917;-58
2022/02/17 08:28:33;;;;;;;;;;;19.80;53.00;;;;;;4985162;28;20286;-58
2022/02/17 08:30:59;;;;;;;;;;;19.90;52.90;;;;;;4984104;28;19921;-58
2022/02/17 08:33:24;;;;;;;;;;;19.80;53.00;;;;;;4984844;28;20383;-59
2022/02/17 08:35:50;;;;;;;;;;;19.80;52.90;;;;;;4984233;28;19949;-58
2022/02/17 08:38:15;;;;;;;;;;;19.80;52.90;;;;;;4984368;28;19961;-58
2022/02/17 08:40:41;;;;;;;;;;;19.90;52.80;;;;;;4987708;28;19910;-58
2022/02/17 08:43:09;;;;;;;;;;;19.90;52.80;;;;;;4984288;28;19921;-58
2022/02/17 08:45:38;;;;;;;;;;;19.90;52.70;;;;;;4983771;28;19968;-59
2022/02/17 08:48:04;;;;;;;;;;;19.80;52.70;;;;;;4984831;28;19960;-59
2022/02/17 08:50:29;;;;;;;;;;;19.90;52.70;;;;;;4979485;28;19916;-59
2022/02/17 08:52:55;;;;;;;;;;;19.90;52.60;;;;;;4983985;28;19910;-58
2022/02/17 08:55:20;;;;;;;;;;;19.90;52.60;;;;;;4984210;28;19917;-59
2022/02/17 08:57:47;;;;;;;;;;;19.90;52.50;;;;;;4984081;28;20326;-58
2022/02/17 09:00:16;;;;;;;;;;;19.90;52.50;;;;;;4982155;28;20311;-57
2022/02/17 09:02:41;;;;;;;;;;;19.90;52.50;;;;;;4983960;28;19910;-58
2022/02/17 09:05:07;;;;;;;;;;;19.90;52.50;;;;;;4984615;28;19954;-55
2022/02/17 09:07:32;;;;;;;;;;;19.90;52.40;;;;;;4984326;28;19910;-59
2022/02/17 09:09:58;;;;;;;;;;;19.90;52.20;;;;;;4986258;28;19996;-58
2022/02/17 09:12:23;;;;;;;;;;;19.90;52.30;;;;;;4983973;28;20904;-56
2022/02/17 09:14:48;;;;;;;;;;;19.90;52.30;;;;;;4987531;28;19917;-58
2022/02/17 09:17:14;;;;;;;;;;;19.90;52.20;;;;;;4988101;28;19910;-59
2022/02/17 09:19:40;;;;;;;;;;;19.90;52.10;;;;;;4983993;28;19910;-58
2022/02/17 09:22:05;;;;;;;;;;;19.90;52.10;;;;;;4984256;28;20422;-56
2022/02/17 09:24:30;;;;;;;;;;;19.90;52.00;;;;;;4983674;28;19976;-59
2022/02/17 09:26:56;;;;;;;;;;;19.90;52.00;;;;;;4983737;28;19910;-58
2022/02/17 09:29:21;;;;;;;;;;;20.00;52.00;;;;;;4983608;28;19960;-58
2022/02/17 09:31:47;;;;;;;;;;;20.00;51.90;;;;;;4987072;28;19910;-59
2022/02/17 09:34:12;;;;;;;;;;;20.00;51.80;;;;;;4983909;28;19910;-59
2022/02/17 09:36:38;;;;;;;;;;;20.00;51.70;;;;;;4984137;28;19914;-57
2022/02/17 09:39:04;;;;;;;;;;;20.00;51.60;;;;;;4982314;28;19914;-59
2022/02/17 09:41:29;;;;;;;;;;;20.00;51.60;;;;;;4984211;28;19909;-60
2022/02/17 09:43:59;;;;;;;;;;;20.00;51.60;;;;;;4978714;28;19915;-58
2022/02/17 09:46:24;;;;;;;;;;;20.00;51.60;;;;;;4982114;28;19924;-59
2022/02/17 09:48:55;;;;;;;;;;;20.00;51.60;;;;;;4983081;28;20286;-58
2022/02/17 09:51:24;;;;;;;;;;;20.00;51.50;;;;;;4982727;28;20370;-57
2022/02/17 09:53:50;;;;;;;;;;;20.00;51.50;;;;;;4983117;28;19964;-58
2022/02/17 09:56:16;;;;;;;;;;;20.00;51.50;;;;;;4982107;28;20349;-58
2022/02/17 09:58:42;;;;;;;;;;;20.00;51.50;;;;;;4985432;28;20051;-59
2022/02/17 10:01:07;;;;;;;;;;;20.00;51.60;;;;;;4987245;28;19940;-58
2022/02/17 10:03:36;;;;;;;;;;;19.90;51.70;;;;;;4984503;28;19929;-58
2022/02/17 10:06:06;;;;;;;;;;;20.00;51.80;;;;;;4984907;28;20008;-58
2022/02/17 10:08:32;;;;;;;;;;;20.00;52.00;;;;;;4983481;28;19925;-58
2022/02/17 10:10:57;;;;;;;;;;;20.00;52.00;;;;;;4982559;28;19922;-58
2022/02/17 10:13:23;;;;;;;;;;;20.00;52.10;;;;;;4986951;28;20365;-58
2022/02/17 10:15:51;;;;;;;;;;;20.10;52.30;;;;;;4983322;28;20404;-57
2022/02/17 10:18:19;;;;;;;;;;;20.10;52.30;;;;;;4983835;28;19964;-60
2022/02/17 10:21:03;;;;;;;;;;;20.10;52.40;;;;;;4985935;28;19959;-59
2022/02/17 10:23:32;;;;;;;;;;;20.10;52.50;;;;;;4983981;28;19914;-58
2022/02/17 10:25:58;;;;;;;;;;;20.10;52.50;;;;;;4983434;28;20336;-58
2022/02/17 10:28:24;;;;;;;;;;;20.10;53.20;;;;;;4983412;28;19918;-58
2022/02/17 10:30:49;;;;;;;;;;;20.10;52.60;;;;;;4983027;28;20450;-58
2022/02/17 10:33:15;;;;;;;;;;;20.10;52.60;;;;;;4983742;28;19910;-60
2022/02/17 10:35:50;;;;;;;;;;;20.10;52.60;;;;;;4983677;28;20359;-58
2022/02/17 10:38:17;;;;;;;;;;;20.10;52.60;;;;;;4986939;28;19917;-57
2022/02/17 10:40:43;;;;;;;;;;;20.10;52.60;;;;;;4986604;28;20062;-58
2022/02/17 10:43:09;;;;;;;;;;;20.20;52.70;;;;;;4986044;28;19917;-58
2022/02/17 10:45:34;;;;;;;;;;;20.10;52.60;;;;;;4986925;28;19914;-58
2022/02/17 10:48:09;;;;;;;;;;;20.20;52.70;;;;;;4986475;28;20688;-59
2022/02/17 10:50:35;;;;;;;;;;;20.20;52.70;;;;;;4985554;28;20872;-62
2022/02/17 10:53:00;;;;;;;;;;;20.20;52.80;;;;;;4986187;28;20391;-58
2022/02/17 10:55:26;;;;;;;;;;;20.20;53.00;;;;;;4985469;28;19922;-59
2022/02/17 10:57:51;;;;;;;;;;;20.20;53.10;;;;;;4986580;28;19913;-58
2022/02/17 11:00:20;;;;;;;;;;;20.20;53.20;;;;;;4985967;28;19910;-58
2022/02/17 11:02:46;;;;;;;;;;;20.20;53.30;;;;;;4989561;28;19909;-58
2022/02/17 11:05:11;;;;;;;;;;;20.20;53.40;;;;;;4986772;28;20053;-58
2022/02/17 11:07:37;;;;;;;;;;;20.20;53.80;;;;;;4991828;28;20607;-55
2022/02/17 11:10:03;;;;;;;;;;;20.20;53.60;;;;;;4986166;28;20000;-56
2022/02/17 11:12:29;;;;;;;;;;;20.20;53.70;;;;;;4985401;28;19910;-57
2022/02/17 11:14:55;;;;;;;;;;;20.20;53.80;;;;;;4986158;28;21452;-57
2022/02/17 11:17:21;;;;;;;;;;;20.20;53.80;;;;;;4986538;28;19941;-58
2022/02/17 11:19:46;;;;;;;;;;;20.10;53.80;;;;;;4985729;28;19936;-57
2022/02/17 11:22:12;;;;;;;;;;;20.10;54.00;;;;;;4990593;28;19914;-59
2022/02/17 11:24:44;;;;;;;;;;;20.10;54.00;;;;;;4984647;28;20000;-59
2022/02/17 11:27:10;;;;;;;;;;;20.10;54.50;;;;;;4990028;28;19910;-59
2022/02/17 11:29:36;;;;;;;;;;;20.00;54.10;;;;;;4985826;28;20279;-65
2022/02/17 11:32:05;;;;;;;;;;;20.00;54.10;;;;;;4990604;28;19910;-57
2022/02/17 11:34:34;;;;;;;;;;;20.00;54.00;;;;;;4986258;28;21376;-59
2022/02/17 11:37:00;;;;;;;;;;;20.00;53.90;;;;;;4984658;28;19917;-58
2022/02/17 11:39:25;;;;;;;;;;;20.00;54.00;;;;;;4984716;28;19921;-58
2022/02/17 11:41:50;;;;;;;;;;;20.00;53.80;;;;;;4985493;28;19973;-59
2022/02/17 11:44:18;;;;;;;;;;;20.00;53.80;;;;;;4987351;28;19931;-59
2022/02/17 11:46:44;;;;;;;;;;;20.10;53.80;;;;;;4984858;28;19914;-59
2022/02/17 11:49:28;;;;;;;;;;;20.10;53.70;;;;;;4985649;28;19910;-59
2022/02/17 11:52:09;;;;;;;;;;;20.10;53.70;;;;;;4983726;28;19926;-59
2022/02/17 11:54:35;;;;;;;;;;;20.10;53.70;;;;;;4989980;28;21606;-59
2022/02/17 11:57:00;;;;;;;;;;;20.10;53.70;;;;;;4985065;28;19962;-58
2022/02/17 11:59:27;;;;;;;;;;;20.00;53.50;;;;;;4983672;28;19930;-59
2022/02/17 12:01:53;;;;;;;;;;;20.00;53.50;;;;;;4985420;28;19984;-58
2022/02/17 12:04:19;;;;;;;;;;;20.00;53.50;;;;;;4985014;28;19925;-59
2022/02/17 12:06:49;;;;;;;;;;;20.00;53.50;;;;;;4984484;28;19953;-59
2022/02/17 12:09:30;;;;;;;;;;;20.00;53.50;;;;;;4984188;28;19976;-56
2022/02/17 12:12:07;;;;;;;;;;;20.00;53.40;;;;;;4984713;28;19917;-59
2022/02/17 12:14:33;;;;;;;;;;;20.00;53.50;;;;;;4985031;28;20445;-60
2022/02/17 12:17:02;;;;;;;;;;;20.00;53.40;;;;;;4983930;28;19953;-58
2022/02/17 12:19:28;;;;;;;;;;;20.00;53.40;;;;;;4983532;28;19914;-59
2022/02/17 12:21:56;;;;;;;;;;;20.00;53.30;;;;;;4983728;28;20418;-59
2022/02/17 12:24:22;;;;;;;;;;;20.00;53.30;;;;;;4982995;28;19913;-57
2022/02/17 12:26:50;;;;;;;;;;;20.00;53.20;;;;;;4984156;28;19932;-57
2022/02/17 12:29:22;;;;;;;;;;;20.00;53.20;;;;;;4982658;28;19910;-58
2022/02/17 12:31:48;;;;;;;;;;;20.00;53.30;;;;;;4983488;28;19909;-59
2022/02/17 12:34:13;;;;;;;;;;;20.00;53.20;;;;;;4984496;28;19916;-60
2022/02/17 12:36:39;;;;;;;;;;;20.00;53.20;;;;;;4983510;28;19964;-59
2022/02/17 12:39:05;;;;;;;;;;;20.00;53.10;;;;;;4987690;28;20375;-59
2022/02/17 12:41:30;;;;;;;;;;;20.00;53.10;;;;;;4983944;28;19941;-60
2022/02/17 12:43:56;;;;;;;;;;;20.00;53.10;;;;;;4985509;28;19925;-58
2022/02/17 12:46:21;;;;;;;;;;;20.00;53.20;;;;;;4983737;28;19917;-59
2022/02/17 12:48:46;;;;;;;;;;;20.00;53.30;;;;;;4982649;28;20295;-60
2022/02/17 12:51:27;;;;;;;;;;;20.00;53.20;;;;;;4983984;28;19918;-59
2022/02/17 12:53:54;;;;;;;;;;;20.00;53.20;;;;;;4977096;28;20012;-60
2022/02/17 12:56:38;;;;;;;;;;;20.00;53.30;;;;;;4984583;28;20062;-61
2022/02/17 12:59:04;;;;;;;;;;;20.00;53.20;;;;;;4984855;28;20443;-59
2022/02/17 13:01:30;;;;;;;;;;;20.10;53.10;;;;;;4984210;28;19910;-59
2022/02/17 13:03:55;;;;;;;;;;;20.10;53.20;;;;;;4984070;28;20373;-60
2022/02/17 13:06:26;;;;;;;;;;;20.10;53.20;;;;;;4984424;28;19910;-60
2022/02/17 13:08:53;;;;;;;;;;;20.10;53.30;;;;;;4989581;28;20000;-60
2022/02/17 13:11:19;;;;;;;;;;;20.10;53.20;;;;;;4983823;28;19957;-59
2022/02/17 13:13:45;;;;;;;;;;;20.10;53.30;;;;;;4985119;28;20007;-59
2022/02/17 13:16:11;;;;;;;;;;;20.10;53.30;;;;;;4980233;28;20442;-59
2022/02/17 13:18:38;;;;;;;;;;;20.10;53.30;;;;;;4981720;28;20021;-59
2022/02/17 13:21:07;;;;;;;;;;;20.10;53.20;;;;;;4983812;28;19917;-59
2022/02/17 13:23:33;;;;;;;;;;;20.10;53.30;;;;;;4977528;28;20675;-59
2022/02/17 13:25:58;;;;;;;;;;;20.10;53.20;;;;;;4984891;28;20367;-60
2022/02/17 13:28:24;;;;;;;;;;;20.10;53.10;;;;;;4983651;28;19909;-60
2022/02/17 13:30:49;;;;;;;;;;;20.10;53.10;;;;;;4982840;28;19917;-58
2022/02/17 13:33:18;;;;;;;;;;;20.10;53.20;;;;;;4983722;28;19949;-58
2022/02/17 13:35:48;;;;;;;;;;;20.10;53.10;;;;;;4984319;28;19916;-59
2022/02/17 13:38:13;;;;;;;;;;;20.10;53.10;;;;;;4983994;28;19925;-59
2022/02/17 13:40:42;;;;;;;;;;;20.10;53.00;;;;;;4983447;28;19910;-59
2022/02/17 13:43:08;;;;;;;;;;;20.10;53.10;;;;;;4983698;28;20025;-61
2022/02/17 13:45:34;;;;;;;;;;;20.10;53.10;;;;;;4983299;28;19913;-59
2022/02/17 13:47:59;;;;;;;;;;;20.10;53.20;;;;;;4983528;28;19960;-59
2022/02/17 13:50:26;;;;;;;;;;;20.10;53.10;;;;;;4982062;28;19914;-59
2022/02/17 13:52:58;;;;;;;;;;;20.10;53.00;;;;;;4966362;28;20756;-59
2022/02/17 13:55:24;;;;;;;;;;;20.10;53.00;;;;;;4983766;28;20116;-59
2022/02/17 13:57:50;;;;;;;;;;;20.10;52.80;;;;;;4983377;28;20071;-59
2022/02/17 14:00:16;;;;;;;;;;;20.10;52.80;;;;;;4982679;28;19926;-59
2022/02/17 14:02:42;;;;;;;;;;;20.10;53.00;;;;;;4983562;28;20069;-60
2022/02/17 14:05:07;;;;;;;;;;;20.10;52.90;;;;;;4981955;28;19925;-59
2022/02/17 14:07:33;;;;;;;;;;;20.10;52.80;;;;;;4983810;28;19910;-59
2022/02/17 14:09:58;;;;;;;;;;;20.10;52.90;;;;;;4982763;28;19913;-59
2022/02/17 14:12:24;;;;;;;;;;;20.10;52.80;;;;;;4986780;28;20421;-59
2022/02/17 14:14:49;;;;;;;;;;;20.10;52.80;;;;;;4990886;28;19990;-59